sensor_id;sensor_type;location;lat;lon;timestamp;P1;durP1;ratioP1;P2;durP2;ratioP2
44048;SDS011;29717;47.028;15.470;2023-07-31T00:02:08;7.78;;;2.50;;
44048;SDS011;29717;47.028;15.470;2023-07-31T00:04:34;5.93;;;2.30;;
44048;SDS011;29717;47.028;15.470;2023-07-31T00:07:01;4.45;;;2.47;;
44048;SDS011;29717;47.028;15.470;2023-07-31T00:09:29;3.60;;;2.30;;
44048;SDS011;29717;47.028;15.470;2023-07-31T00:11:57;3.28;;;2.33;;
44048;SDS011;29717;47.028;15.470;2023-07-31T00:14:24;2.70;;;2.10;;
44048;SDS011;29717;47.028;15.470;2023-07-31T00:16:50;4.43;;;2.30;;
44048;SDS011;29717;47.028;15.470;2023-07-31T00:19:17;5.00;;;2.30;;
44048;SDS011;29717;47.028;15.470;2023-07-31T00:21:44;3.45;;;2.08;;
44048;SDS011;29717;47.028;15.470;2023-07-31T00:24:11;2.75;;;2.10;;
44048;SDS011;29717;47.028;15.470;2023-07-31T00:26:37;4.00;;;2.33;;
44048;SDS011;29717;47.028;15.470;2023-07-31T00:29:05;8.25;;;2.22;;
44048;SDS011;29717;47.028;15.470;2023-07-31T00:31:32;2.42;;;2.22;;
44048;SDS011;29717;47.028;15.470;2023-07-31T00:33:59;4.47;;;2.08;;
44048;SDS011;29717;47.028;15.470;2023-07-31T00:36:25;4.90;;;2.22;;
44048;SDS011;29717;47.028;15.470;2023-07-31T00:38:52;5.45;;;2.13;;
44048;SDS011;29717;47.028;15.470;2023-07-31T00:41:19;2.95;;;2.17;;
44048;SDS011;29717;47.028;15.470;2023-07-31T00:43:45;3.22;;;2.20;;
44048;SDS011;29717;47.028;15.470;2023-07-31T00:46:13;3.53;;;2.15;;
44048;SDS011;29717;47.028;15.470;2023-07-31T00:48:40;3.17;;;2.20;;
44048;SDS011;29717;47.028;15.470;2023-07-31T00:51:07;2.92;;;2.42;;
44048;SDS011;29717;47.028;15.470;2023-07-31T00:53:35;4.45;;;1.98;;
44048;SDS011;29717;47.028;15.470;2023-07-31T00:56:03;2.72;;;1.98;;
44048;SDS011;29717;47.028;15.470;2023-07-31T00:58:31;2.38;;;2.17;;
44048;SDS011;29717;47.028;15.470;2023-07-31T01:00:58;2.50;;;2.30;;
44048;SDS011;29717;47.028;15.470;2023-07-31T01:03:26;5.55;;;2.20;;
44048;SDS011;29717;47.028;15.470;2023-07-31T01:05:55;6.05;;;2.38;;
44048;SDS011;29717;47.028;15.470;2023-07-31T01:08:27;6.65;;;2.22;;
44048;SDS011;29717;47.028;15.470;2023-07-31T01:10:58;7.00;;;2.17;;
44048;SDS011;29717;47.028;15.470;2023-07-31T01:13:26;3.30;;;2.22;;
44048;SDS011;29717;47.028;15.470;2023-07-31T01:15:54;2.30;;;2.10;;
44048;SDS011;29717;47.028;15.470;2023-07-31T01:18:21;6.00;;;2.20;;
44048;SDS011;29717;47.028;15.470;2023-07-31T01:20:51;3.38;;;2.20;;
44048;SDS011;29717;47.028;15.470;2023-07-31T01:23:30;5.43;;;2.38;;
44048;SDS011;29717;47.028;15.470;2023-07-31T01:26:05;2.75;;;2.10;;
44048;SDS011;29717;47.028;15.470;2023-07-31T01:28:39;3.67;;;2.20;;
44048;SDS011;29717;47.028;15.470;2023-07-31T01:31:07;4.68;;;2.40;;
44048;SDS011;29717;47.028;15.470;2023-07-31T01:33:34;3.03;;;2.30;;
44048;SDS011;29717;47.028;15.470;2023-07-31T01:36:04;5.40;;;2.40;;
44048;SDS011;29717;47.028;15.470;2023-07-31T01:38:31;7.47;;;2.38;;
44048;SDS011;29717;47.028;15.470;2023-07-31T01:40:58;5.68;;;2.30;;
44048;SDS011;29717;47.028;15.470;2023-07-31T01:43:26;6.40;;;2.40;;
44048;SDS011;29717;47.028;15.470;2023-07-31T01:45:52;6.68;;;2.15;;
44048;SDS011;29717;47.028;15.470;2023-07-31T01:48:19;7.38;;;2.22;;
44048;SDS011;29717;47.028;15.470;2023-07-31T01:50:46;3.45;;;2.40;;
44048;SDS011;29717;47.028;15.470;2023-07-31T01:53:12;7.70;;;2.53;;
44048;SDS011;29717;47.028;15.470;2023-07-31T01:55:39;3.22;;;2.33;;
44048;SDS011;29717;47.028;15.470;2023-07-31T01:58:06;3.35;;;2.08;;
44048;SDS011;29717;47.028;15.470;2023-07-31T02:00:34;4.32;;;2.10;;
44048;SDS011;29717;47.028;15.470;2023-07-31T02:03:01;3.05;;;2.30;;
44048;SDS011;29717;47.028;15.470;2023-07-31T02:05:27;5.72;;;2.50;;
44048;SDS011;29717;47.028;15.470;2023-07-31T02:07:54;4.07;;;2.22;;
44048;SDS011;29717;47.028;15.470;2023-07-31T02:10:21;4.78;;;2.35;;
44048;SDS011;29717;47.028;15.470;2023-07-31T02:12:47;6.65;;;2.92;;
44048;SDS011;29717;47.028;15.470;2023-07-31T02:15:14;4.93;;;3.55;;
44048;SDS011;29717;47.028;15.470;2023-07-31T02:17:42;7.13;;;4.57;;
44048;SDS011;29717;47.028;15.470;2023-07-31T02:20:09;7.78;;;5.28;;
44048;SDS011;29717;47.028;15.470;2023-07-31T02:22:36;8.68;;;4.93;;
44048;SDS011;29717;47.028;15.470;2023-07-31T02:25:03;7.07;;;4.88;;
44048;SDS011;29717;47.028;15.470;2023-07-31T02:27:30;6.60;;;4.95;;
44048;SDS011;29717;47.028;15.470;2023-07-31T02:29:56;5.43;;;4.72;;
44048;SDS011;29717;47.028;15.470;2023-07-31T02:32:24;5.07;;;4.55;;
44048;SDS011;29717;47.028;15.470;2023-07-31T02:34:52;6.00;;;3.80;;
44048;SDS011;29717;47.028;15.470;2023-07-31T02:37:19;4.95;;;3.47;;
44048;SDS011;29717;47.028;15.470;2023-07-31T02:39:45;4.95;;;2.80;;
44048;SDS011;29717;47.028;15.470;2023-07-31T02:42:12;4.45;;;2.80;;
44048;SDS011;29717;47.028;15.470;2023-07-31T02:44:39;5.38;;;3.38;;
44048;SDS011;29717;47.028;15.470;2023-07-31T02:47:05;3.50;;;3.20;;
44048;SDS011;29717;47.028;15.470;2023-07-31T02:49:32;4.97;;;3.30;;
44048;SDS011;29717;47.028;15.470;2023-07-31T02:52:00;4.68;;;2.85;;
44048;SDS011;29717;47.028;15.470;2023-07-31T02:54:27;3.17;;;2.83;;
44048;SDS011;29717;47.028;15.470;2023-07-31T02:56:54;3.80;;;3.28;;
44048;SDS011;29717;47.028;15.470;2023-07-31T02:59:20;4.18;;;3.30;;
44048;SDS011;29717;47.028;15.470;2023-07-31T03:01:47;4.00;;;3.25;;
44048;SDS011;29717;47.028;15.470;2023-07-31T03:04:14;6.85;;;3.03;;
44048;SDS011;29717;47.028;15.470;2023-07-31T03:06:40;3.15;;;2.85;;
44048;SDS011;29717;47.028;15.470;2023-07-31T03:09:08;4.50;;;3.30;;
44048;SDS011;29717;47.028;15.470;2023-07-31T03:11:35;4.95;;;3.28;;
44048;SDS011;29717;47.028;15.470;2023-07-31T03:14:02;7.10;;;3.53;;
44048;SDS011;29717;47.028;15.470;2023-07-31T03:16:28;4.97;;;3.30;;
44048;SDS011;29717;47.028;15.470;2023-07-31T03:18:55;3.67;;;3.33;;
44048;SDS011;29717;47.028;15.470;2023-07-31T03:21:23;3.67;;;3.28;;
44048;SDS011;29717;47.028;15.470;2023-07-31T03:23:50;4.93;;;3.25;;
44048;SDS011;29717;47.028;15.470;2023-07-31T03:26:18;4.75;;;3.25;;
44048;SDS011;29717;47.028;15.470;2023-07-31T03:28:44;3.53;;;3.22;;
44048;SDS011;29717;47.028;15.470;2023-07-31T03:31:11;5.82;;;3.42;;
44048;SDS011;29717;47.028;15.470;2023-07-31T03:33:38;4.03;;;3.70;;
44048;SDS011;29717;47.028;15.470;2023-07-31T03:36:06;4.05;;;3.63;;
44048;SDS011;29717;47.028;15.470;2023-07-31T03:38:33;3.20;;;2.90;;
44048;SDS011;29717;47.028;15.470;2023-07-31T03:41:00;4.25;;;3.85;;
44048;SDS011;29717;47.028;15.470;2023-07-31T03:43:29;5.40;;;4.65;;
44048;SDS011;29717;47.028;15.470;2023-07-31T03:45:55;5.95;;;5.35;;
44048;SDS011;29717;47.028;15.470;2023-07-31T03:48:22;8.52;;;5.10;;
44048;SDS011;29717;47.028;15.470;2023-07-31T03:50:49;5.85;;;5.07;;
44048;SDS011;29717;47.028;15.470;2023-07-31T03:53:15;4.65;;;4.25;;
44048;SDS011;29717;47.028;15.470;2023-07-31T03:55:42;5.85;;;4.50;;
44048;SDS011;29717;47.028;15.470;2023-07-31T03:58:09;5.55;;;4.55;;
44048;SDS011;29717;47.028;15.470;2023-07-31T04:00:37;6.90;;;4.78;;
44048;SDS011;29717;47.028;15.470;2023-07-31T04:03:04;11.30;;;5.25;;
44048;SDS011;29717;47.028;15.470;2023-07-31T04:05:31;5.93;;;4.55;;
44048;SDS011;29717;47.028;15.470;2023-07-31T04:07:58;8.65;;;5.10;;
44048;SDS011;29717;47.028;15.470;2023-07-31T04:10:25;6.30;;;5.50;;
44048;SDS011;29717;47.028;15.470;2023-07-31T04:12:51;6.20;;;5.20;;
44048;SDS011;29717;47.028;15.470;2023-07-31T04:15:18;8.27;;;4.65;;
44048;SDS011;29717;47.028;15.470;2023-07-31T04:17:46;5.65;;;4.60;;
44048;SDS011;29717;47.028;15.470;2023-07-31T04:20:13;7.97;;;5.35;;
44048;SDS011;29717;47.028;15.470;2023-07-31T04:22:39;5.40;;;4.90;;
44048;SDS011;29717;47.028;15.470;2023-07-31T04:25:06;5.63;;;4.88;;
44048;SDS011;29717;47.028;15.470;2023-07-31T04:27:33;6.93;;;4.80;;
44048;SDS011;29717;47.028;15.470;2023-07-31T04:29:59;6.53;;;4.80;;
44048;SDS011;29717;47.028;15.470;2023-07-31T04:32:26;6.93;;;5.30;;
44048;SDS011;29717;47.028;15.470;2023-07-31T04:34:55;14.48;;;5.65;;
44048;SDS011;29717;47.028;15.470;2023-07-31T04:37:22;10.35;;;5.20;;
44048;SDS011;29717;47.028;15.470;2023-07-31T04:39:48;5.85;;;5.13;;
44048;SDS011;29717;47.028;15.470;2023-07-31T04:42:15;5.53;;;4.95;;
44048;SDS011;29717;47.028;15.470;2023-07-31T04:44:42;9.10;;;4.43;;
44048;SDS011;29717;47.028;15.470;2023-07-31T04:47:08;5.30;;;4.80;;
44048;SDS011;29717;47.028;15.470;2023-07-31T04:49:35;8.00;;;3.97;;
44048;SDS011;29717;47.028;15.470;2023-07-31T04:52:03;10.48;;;3.80;;
44048;SDS011;29717;47.028;15.470;2023-07-31T04:54:31;4.82;;;3.95;;
44048;SDS011;29717;47.028;15.470;2023-07-31T04:56:58;5.68;;;4.28;;
44048;SDS011;29717;47.028;15.470;2023-07-31T04:59:25;4.50;;;4.10;;
44048;SDS011;29717;47.028;15.470;2023-07-31T05:01:52;4.72;;;4.30;;
44048;SDS011;29717;47.028;15.470;2023-07-31T05:04:18;5.68;;;4.40;;
44048;SDS011;29717;47.028;15.470;2023-07-31T05:06:45;4.40;;;4.00;;
44048;SDS011;29717;47.028;15.470;2023-07-31T05:09:13;5.75;;;4.15;;
44048;SDS011;29717;47.028;15.470;2023-07-31T05:11:40;4.95;;;4.45;;
44048;SDS011;29717;47.028;15.470;2023-07-31T05:14:08;5.28;;;4.30;;
44048;SDS011;29717;47.028;15.470;2023-07-31T05:16:34;8.57;;;4.65;;
44048;SDS011;29717;47.028;15.470;2023-07-31T05:19:01;6.85;;;4.43;;
44048;SDS011;29717;47.028;15.470;2023-07-31T05:21:28;4.63;;;4.20;;
44048;SDS011;29717;47.028;15.470;2023-07-31T05:23:55;5.57;;;4.15;;
44048;SDS011;29717;47.028;15.470;2023-07-31T05:26:23;4.78;;;4.28;;
44048;SDS011;29717;47.028;15.470;2023-07-31T05:28:49;4.75;;;4.18;;
44048;SDS011;29717;47.028;15.470;2023-07-31T05:31:16;4.30;;;3.90;;
44048;SDS011;29717;47.028;15.470;2023-07-31T05:33:43;5.32;;;4.82;;
44048;SDS011;29717;47.028;15.470;2023-07-31T05:36:11;5.25;;;4.70;;
44048;SDS011;29717;47.028;15.470;2023-07-31T05:38:37;5.45;;;4.90;;
44048;SDS011;29717;47.028;15.470;2023-07-31T05:41:04;9.50;;;5.50;;
44048;SDS011;29717;47.028;15.470;2023-07-31T05:43:32;6.15;;;5.50;;
44048;SDS011;29717;47.028;15.470;2023-07-31T05:45:59;8.10;;;5.22;;
44048;SDS011;29717;47.028;15.470;2023-07-31T05:48:26;8.95;;;6.00;;
44048;SDS011;29717;47.028;15.470;2023-07-31T05:50:53;7.20;;;6.18;;
44048;SDS011;29717;47.028;15.470;2023-07-31T05:53:20;7.00;;;5.55;;
44048;SDS011;29717;47.028;15.470;2023-07-31T05:55:46;9.77;;;5.88;;
44048;SDS011;29717;47.028;15.470;2023-07-31T05:58:13;6.57;;;5.10;;
44048;SDS011;29717;47.028;15.470;2023-07-31T06:00:41;5.22;;;4.72;;
44048;SDS011;29717;47.028;15.470;2023-07-31T06:03:08;5.75;;;4.93;;
44048;SDS011;29717;47.028;15.470;2023-07-31T06:05:35;5.18;;;4.68;;
44048;SDS011;29717;47.028;15.470;2023-07-31T06:08:01;5.70;;;5.15;;
44048;SDS011;29717;47.028;15.470;2023-07-31T06:10:28;6.32;;;4.93;;
44048;SDS011;29717;47.028;15.470;2023-07-31T06:12:55;5.60;;;5.00;;
44048;SDS011;29717;47.028;15.470;2023-07-31T06:15:22;5.68;;;4.70;;
44048;SDS011;29717;47.028;15.470;2023-07-31T06:17:50;6.32;;;4.93;;
44048;SDS011;29717;47.028;15.470;2023-07-31T06:20:17;7.68;;;3.97;;
44048;SDS011;29717;47.028;15.470;2023-07-31T06:22:44;4.55;;;3.78;;
44048;SDS011;29717;47.028;15.470;2023-07-31T06:25:11;4.35;;;3.60;;
44048;SDS011;29717;47.028;15.470;2023-07-31T06:27:38;5.72;;;3.63;;
44048;SDS011;29717;47.028;15.470;2023-07-31T06:30:06;5.05;;;4.22;;
44048;SDS011;29717;47.028;15.470;2023-07-31T06:32:32;7.03;;;4.78;;
44048;SDS011;29717;47.028;15.470;2023-07-31T06:35:01;7.03;;;5.22;;
44048;SDS011;29717;47.028;15.470;2023-07-31T06:37:27;8.80;;;5.57;;
44048;SDS011;29717;47.028;15.470;2023-07-31T06:39:54;9.75;;;4.82;;
44048;SDS011;29717;47.028;15.470;2023-07-31T06:42:21;4.72;;;4.05;;
44048;SDS011;29717;47.028;15.470;2023-07-31T06:44:47;7.10;;;4.15;;
44048;SDS011;29717;47.028;15.470;2023-07-31T06:47:14;4.97;;;3.65;;
44048;SDS011;29717;47.028;15.470;2023-07-31T06:49:41;7.90;;;3.20;;
44048;SDS011;29717;47.028;15.470;2023-07-31T06:52:09;6.45;;;3.42;;
44048;SDS011;29717;47.028;15.470;2023-07-31T06:54:36;8.48;;;3.10;;
44048;SDS011;29717;47.028;15.470;2023-07-31T06:57:03;3.67;;;3.05;;
44048;SDS011;29717;47.028;15.470;2023-07-31T06:59:30;4.90;;;2.70;;
44048;SDS011;29717;47.028;15.470;2023-07-31T07:01:56;3.17;;;2.53;;
44048;SDS011;29717;47.028;15.470;2023-07-31T07:04:23;5.32;;;2.85;;
44048;SDS011;29717;47.028;15.470;2023-07-31T07:06:50;2.80;;;2.50;;
44048;SDS011;29717;47.028;15.470;2023-07-31T07:09:18;3.67;;;3.30;;
44048;SDS011;29717;47.028;15.470;2023-07-31T07:11:44;4.05;;;2.70;;
44048;SDS011;29717;47.028;15.470;2023-07-31T07:14:11;4.03;;;2.13;;
44048;SDS011;29717;47.028;15.470;2023-07-31T07:16:38;3.35;;;2.20;;
44048;SDS011;29717;47.028;15.470;2023-07-31T07:19:06;2.63;;;2.05;;
44048;SDS011;29717;47.028;15.470;2023-07-31T07:21:33;3.65;;;2.13;;
44048;SDS011;29717;47.028;15.470;2023-07-31T07:23:59;3.55;;;2.20;;
44048;SDS011;29717;47.028;15.470;2023-07-31T07:26:27;2.55;;;2.15;;
44048;SDS011;29717;47.028;15.470;2023-07-31T07:28:54;3.05;;;2.03;;
44048;SDS011;29717;47.028;15.470;2023-07-31T07:31:21;3.70;;;2.10;;
44048;SDS011;29717;47.028;15.470;2023-07-31T07:33:48;5.18;;;2.40;;
44048;SDS011;29717;47.028;15.470;2023-07-31T07:36:14;2.17;;;1.85;;
44048;SDS011;29717;47.028;15.470;2023-07-31T07:38:41;3.13;;;2.20;;
44048;SDS011;29717;47.028;15.470;2023-07-31T07:41:08;2.28;;;1.90;;
44048;SDS011;29717;47.028;15.470;2023-07-31T07:43:36;1.98;;;1.60;;
44048;SDS011;29717;47.028;15.470;2023-07-31T07:46:02;1.98;;;1.85;;
44048;SDS011;29717;47.028;15.470;2023-07-31T07:48:29;1.80;;;1.70;;
44048;SDS011;29717;47.028;15.470;2023-07-31T07:50:56;1.58;;;1.42;;
44048;SDS011;29717;47.028;15.470;2023-07-31T07:53:22;1.80;;;1.70;;
44048;SDS011;29717;47.028;15.470;2023-07-31T07:55:49;3.67;;;1.70;;
44048;SDS011;29717;47.028;15.470;2023-07-31T07:58:16;4.20;;;1.70;;
44048;SDS011;29717;47.028;15.470;2023-07-31T08:00:49;2.55;;;2.25;;
44048;SDS011;29717;47.028;15.470;2023-07-31T08:03:17;3.15;;;1.70;;
44048;SDS011;29717;47.028;15.470;2023-07-31T08:05:44;1.60;;;1.50;;
44048;SDS011;29717;47.028;15.470;2023-07-31T08:08:13;2.38;;;1.80;;
44048;SDS011;29717;47.028;15.470;2023-07-31T08:10:40;3.22;;;2.60;;
44048;SDS011;29717;47.028;15.470;2023-07-31T08:13:07;2.38;;;2.08;;
44048;SDS011;29717;47.028;15.470;2023-07-31T08:15:33;3.47;;;2.00;;
44048;SDS011;29717;47.028;15.470;2023-07-31T08:18:02;2.63;;;1.90;;
44048;SDS011;29717;47.028;15.470;2023-07-31T08:20:28;2.65;;;2.33;;
44048;SDS011;29717;47.028;15.470;2023-07-31T08:22:55;2.15;;;1.95;;
44048;SDS011;29717;47.028;15.470;2023-07-31T08:25:22;4.30;;;3.10;;
44048;SDS011;29717;47.028;15.470;2023-07-31T08:27:49;1.80;;;1.58;;
44048;SDS011;29717;47.028;15.470;2023-07-31T08:30:17;1.63;;;1.50;;
44048;SDS011;29717;47.028;15.470;2023-07-31T08:32:44;4.20;;;2.05;;
44048;SDS011;29717;47.028;15.470;2023-07-31T08:35:12;1.75;;;1.45;;
44048;SDS011;29717;47.028;15.470;2023-07-31T08:37:39;2.63;;;1.58;;
44048;SDS011;29717;47.028;15.470;2023-07-31T08:40:07;2.08;;;1.60;;
44048;SDS011;29717;47.028;15.470;2023-07-31T08:42:33;2.70;;;1.80;;
44048;SDS011;29717;47.028;15.470;2023-07-31T08:45:00;2.08;;;1.55;;
44048;SDS011;29717;47.028;15.470;2023-07-31T08:47:28;1.40;;;1.30;;
44048;SDS011;29717;47.028;15.470;2023-07-31T08:49:56;1.83;;;1.30;;
44048;SDS011;29717;47.028;15.470;2023-07-31T08:52:25;1.83;;;1.50;;
44048;SDS011;29717;47.028;15.470;2023-07-31T08:54:51;2.70;;;1.48;;
44048;SDS011;29717;47.028;15.470;2023-07-31T08:57:18;2.47;;;1.45;;
44048;SDS011;29717;47.028;15.470;2023-07-31T08:59:45;2.75;;;1.60;;
44048;SDS011;29717;47.028;15.470;2023-07-31T09:02:12;1.45;;;1.35;;
44048;SDS011;29717;47.028;15.470;2023-07-31T09:04:40;1.40;;;1.30;;
44048;SDS011;29717;47.028;15.470;2023-07-31T09:07:07;2.63;;;1.48;;
44048;SDS011;29717;47.028;15.470;2023-07-31T09:09:35;2.45;;;1.40;;
44048;SDS011;29717;47.028;15.470;2023-07-31T09:12:02;1.98;;;1.50;;
44048;SDS011;29717;47.028;15.470;2023-07-31T09:14:29;3.17;;;1.48;;
44048;SDS011;29717;47.028;15.470;2023-07-31T09:16:57;3.78;;;1.60;;
44048;SDS011;29717;47.028;15.470;2023-07-31T09:19:25;1.73;;;1.30;;
44048;SDS011;29717;47.028;15.470;2023-07-31T09:21:52;1.65;;;1.45;;
44048;SDS011;29717;47.028;15.470;2023-07-31T09:24:24;3.90;;;1.63;;
44048;SDS011;29717;47.028;15.470;2023-07-31T09:26:52;2.40;;;1.58;;
44048;SDS011;29717;47.028;15.470;2023-07-31T09:29:19;1.52;;;1.42;;
44048;SDS011;29717;47.028;15.470;2023-07-31T09:31:46;1.48;;;1.30;;
44048;SDS011;29717;47.028;15.470;2023-07-31T09:34:13;2.20;;;1.20;;
44048;SDS011;29717;47.028;15.470;2023-07-31T09:36:40;1.42;;;1.33;;
44048;SDS011;29717;47.028;15.470;2023-07-31T09:39:08;1.35;;;1.25;;
44048;SDS011;29717;47.028;15.470;2023-07-31T09:41:36;5.05;;;1.58;;
44048;SDS011;29717;47.028;15.470;2023-07-31T09:44:05;1.40;;;1.30;;
44048;SDS011;29717;47.028;15.470;2023-07-31T09:46:33;2.22;;;1.40;;
44048;SDS011;29717;47.028;15.470;2023-07-31T09:49:07;2.72;;;1.40;;
44048;SDS011;29717;47.028;15.470;2023-07-31T09:51:35;1.40;;;1.30;;
44048;SDS011;29717;47.028;15.470;2023-07-31T09:54:04;1.75;;;1.27;;
44048;SDS011;29717;47.028;15.470;2023-07-31T09:56:35;1.58;;;1.48;;
44048;SDS011;29717;47.028;15.470;2023-07-31T09:59:02;1.88;;;1.30;;
44048;SDS011;29717;47.028;15.470;2023-07-31T10:01:31;1.77;;;1.30;;
44048;SDS011;29717;47.028;15.470;2023-07-31T10:03:58;2.65;;;1.40;;
44048;SDS011;29717;47.028;15.470;2023-07-31T10:06:26;1.50;;;1.40;;
44048;SDS011;29717;47.028;15.470;2023-07-31T10:08:53;2.10;;;1.48;;
44048;SDS011;29717;47.028;15.470;2023-07-31T10:11:21;1.48;;;1.38;;
44048;SDS011;29717;47.028;15.470;2023-07-31T10:13:49;2.67;;;1.33;;
44048;SDS011;29717;47.028;15.470;2023-07-31T10:16:16;1.92;;;1.40;;
44048;SDS011;29717;47.028;15.470;2023-07-31T10:18:45;1.52;;;1.40;;
44048;SDS011;29717;47.028;15.470;2023-07-31T10:21:12;1.38;;;1.27;;
44048;SDS011;29717;47.028;15.470;2023-07-31T10:23:39;1.50;;;1.40;;
44048;SDS011;29717;47.028;15.470;2023-07-31T10:26:06;1.75;;;1.65;;
44048;SDS011;29717;47.028;15.470;2023-07-31T10:28:34;1.48;;;1.35;;
44048;SDS011;29717;47.028;15.470;2023-07-31T10:31:01;2.13;;;1.13;;
44048;SDS011;29717;47.028;15.470;2023-07-31T10:33:28;1.30;;;1.20;;
44048;SDS011;29717;47.028;15.470;2023-07-31T10:38:38;1.67;;;1.42;;
44048;SDS011;29717;47.028;15.470;2023-07-31T10:41:07;1.60;;;1.50;;
44048;SDS011;29717;47.028;15.470;2023-07-31T10:43:36;1.30;;;1.20;;
44048;SDS011;29717;47.028;15.470;2023-07-31T10:46:05;2.45;;;1.52;;
44048;SDS011;29717;47.028;15.470;2023-07-31T10:48:33;1.77;;;1.30;;
44048;SDS011;29717;47.028;15.470;2023-07-31T10:50:59;3.38;;;1.45;;
44048;SDS011;29717;47.028;15.470;2023-07-31T10:53:27;2.72;;;2.00;;
44048;SDS011;29717;47.028;15.470;2023-07-31T10:55:59;1.48;;;1.38;;
44048;SDS011;29717;47.028;15.470;2023-07-31T10:58:26;1.30;;;1.20;;
44048;SDS011;29717;47.028;15.470;2023-07-31T11:00:55;2.28;;;1.50;;
44048;SDS011;29717;47.028;15.470;2023-07-31T11:03:24;4.00;;;1.60;;
44048;SDS011;29717;47.028;15.470;2023-07-31T11:05:52;1.50;;;1.40;;
44048;SDS011;29717;47.028;15.470;2023-07-31T11:08:21;1.48;;;1.38;;
44048;SDS011;29717;47.028;15.470;2023-07-31T11:10:49;1.67;;;1.23;;
44048;SDS011;29717;47.028;15.470;2023-07-31T11:13:17;1.92;;;1.40;;
44048;SDS011;29717;47.028;15.470;2023-07-31T11:15:45;1.55;;;1.45;;
44048;SDS011;29717;47.028;15.470;2023-07-31T11:18:11;2.22;;;1.75;;
44048;SDS011;29717;47.028;15.470;2023-07-31T11:20:38;1.80;;;1.50;;
44048;SDS011;29717;47.028;15.470;2023-07-31T11:23:06;2.72;;;1.50;;
44048;SDS011;29717;47.028;15.470;2023-07-31T11:25:33;1.70;;;1.60;;
44048;SDS011;29717;47.028;15.470;2023-07-31T11:28:04;1.63;;;1.30;;
44048;SDS011;29717;47.028;15.470;2023-07-31T11:30:32;1.60;;;1.50;;
44048;SDS011;29717;47.028;15.470;2023-07-31T11:33:00;1.70;;;1.60;;
44048;SDS011;29717;47.028;15.470;2023-07-31T11:35:28;1.40;;;1.30;;
44048;SDS011;29717;47.028;15.470;2023-07-31T11:37:55;1.40;;;1.30;;
44048;SDS011;29717;47.028;15.470;2023-07-31T11:40:22;1.88;;;1.50;;
44048;SDS011;29717;47.028;15.470;2023-07-31T11:42:53;2.25;;;1.40;;
44048;SDS011;29717;47.028;15.470;2023-07-31T11:45:20;1.95;;;1.50;;
44048;SDS011;29717;47.028;15.470;2023-07-31T11:47:48;2.17;;;1.42;;
44048;SDS011;29717;47.028;15.470;2023-07-31T11:50:16;3.63;;;1.63;;
44048;SDS011;29717;47.028;15.470;2023-07-31T11:52:43;4.05;;;1.70;;
44048;SDS011;29717;47.028;15.470;2023-07-31T11:55:11;3.17;;;1.50;;
44048;SDS011;29717;47.028;15.470;2023-07-31T11:57:40;1.48;;;1.38;;
44048;SDS011;29717;47.028;15.470;2023-07-31T12:00:08;1.70;;;1.60;;
44048;SDS011;29717;47.028;15.470;2023-07-31T12:02:36;1.50;;;1.40;;
44048;SDS011;29717;47.028;15.470;2023-07-31T12:05:06;1.60;;;1.50;;
44048;SDS011;29717;47.028;15.470;2023-07-31T12:07:43;1.85;;;1.35;;
44048;SDS011;29717;47.028;15.470;2023-07-31T12:10:09;2.10;;;1.50;;
44048;SDS011;29717;47.028;15.470;2023-07-31T12:12:36;2.95;;;1.55;;
44048;SDS011;29717;47.028;15.470;2023-07-31T12:15:03;2.20;;;1.40;;
44048;SDS011;29717;47.028;15.470;2023-07-31T12:17:39;4.20;;;1.52;;
44048;SDS011;29717;47.028;15.470;2023-07-31T12:20:08;3.65;;;1.50;;
44048;SDS011;29717;47.028;15.470;2023-07-31T12:22:35;5.55;;;1.65;;
44048;SDS011;29717;47.028;15.470;2023-07-31T12:25:02;2.00;;;1.80;;
44048;SDS011;29717;47.028;15.470;2023-07-31T12:27:32;1.88;;;1.65;;
44048;SDS011;29717;47.028;15.470;2023-07-31T12:30:00;2.13;;;1.60;;
44048;SDS011;29717;47.028;15.470;2023-07-31T12:32:29;1.63;;;1.23;;
44048;SDS011;29717;47.028;15.470;2023-07-31T12:34:59;4.30;;;1.73;;
44048;SDS011;29717;47.028;15.470;2023-07-31T12:37:28;1.70;;;1.60;;
44048;SDS011;29717;47.028;15.470;2023-07-31T12:39:55;1.83;;;1.73;;
44048;SDS011;29717;47.028;15.470;2023-07-31T12:42:25;1.75;;;1.65;;
44048;SDS011;29717;47.028;15.470;2023-07-31T12:44:52;3.90;;;1.70;;
44048;SDS011;29717;47.028;15.470;2023-07-31T12:47:19;3.47;;;1.80;;
44048;SDS011;29717;47.028;15.470;2023-07-31T12:49:46;1.80;;;1.58;;
44048;SDS011;29717;47.028;15.470;2023-07-31T12:52:13;2.03;;;1.83;;
44048;SDS011;29717;47.028;15.470;2023-07-31T12:54:41;5.20;;;1.58;;
44048;SDS011;29717;47.028;15.470;2023-07-31T12:57:07;2.88;;;1.77;;
44048;SDS011;29717;47.028;15.470;2023-07-31T12:59:34;2.70;;;1.77;;
44048;SDS011;29717;47.028;15.470;2023-07-31T13:02:01;2.00;;;1.60;;
44048;SDS011;29717;47.028;15.470;2023-07-31T13:04:28;2.13;;;1.55;;
44048;SDS011;29717;47.028;15.470;2023-07-31T13:06:54;2.05;;;1.50;;
44048;SDS011;29717;47.028;15.470;2023-07-31T13:09:21;3.72;;;1.90;;
44048;SDS011;29717;47.028;15.470;2023-07-31T13:11:49;2.75;;;1.92;;
44048;SDS011;29717;47.028;15.470;2023-07-31T13:14:16;2.25;;;1.70;;
44048;SDS011;29717;47.028;15.470;2023-07-31T13:16:43;2.58;;;1.80;;
44048;SDS011;29717;47.028;15.470;2023-07-31T13:19:09;2.30;;;1.92;;
44048;SDS011;29717;47.028;15.470;2023-07-31T13:21:36;1.85;;;1.70;;
44048;SDS011;29717;47.028;15.470;2023-07-31T13:24:03;2.40;;;1.80;;
44048;SDS011;29717;47.028;15.470;2023-07-31T13:26:30;2.70;;;1.63;;
44048;SDS011;29717;47.028;15.470;2023-07-31T13:28:58;3.88;;;1.73;;
44048;SDS011;29717;47.028;15.470;2023-07-31T13:31:25;4.20;;;2.00;;
44048;SDS011;29717;47.028;15.470;2023-07-31T13:33:52;4.13;;;2.10;;
44048;SDS011;29717;47.028;15.470;2023-07-31T13:36:18;4.18;;;2.05;;
44048;SDS011;29717;47.028;15.470;2023-07-31T13:38:45;3.42;;;1.77;;
44048;SDS011;29717;47.028;15.470;2023-07-31T13:41:12;3.10;;;1.90;;
44048;SDS011;29717;47.028;15.470;2023-07-31T13:43:38;2.15;;;1.95;;
44048;SDS011;29717;47.028;15.470;2023-07-31T13:46:07;4.07;;;2.30;;
44048;SDS011;29717;47.028;15.470;2023-07-31T13:48:36;3.65;;;2.13;;
44048;SDS011;29717;47.028;15.470;2023-07-31T13:51:03;4.53;;;1.90;;
44048;SDS011;29717;47.028;15.470;2023-07-31T13:53:30;2.08;;;1.83;;
44048;SDS011;29717;47.028;15.470;2023-07-31T13:55:57;2.25;;;1.90;;
44048;SDS011;29717;47.028;15.470;2023-07-31T13:58:23;2.28;;;2.00;;
44048;SDS011;29717;47.028;15.470;2023-07-31T14:00:50;1.80;;;1.70;;
44048;SDS011;29717;47.028;15.470;2023-07-31T14:03:18;3.78;;;2.28;;
44048;SDS011;29717;47.028;15.470;2023-07-31T14:05:45;2.40;;;2.15;;
44048;SDS011;29717;47.028;15.470;2023-07-31T14:08:12;4.95;;;2.20;;
44048;SDS011;29717;47.028;15.470;2023-07-31T14:10:39;2.25;;;2.05;;
44048;SDS011;29717;47.028;15.470;2023-07-31T14:13:05;2.10;;;1.90;;
44048;SDS011;29717;47.028;15.470;2023-07-31T14:15:32;2.17;;;1.98;;
44048;SDS011;29717;47.028;15.470;2023-07-31T14:18:00;4.18;;;1.88;;
44048;SDS011;29717;47.028;15.470;2023-07-31T14:20:29;3.03;;;1.83;;
44048;SDS011;29717;47.028;15.470;2023-07-31T14:22:56;2.30;;;2.10;;
44048;SDS011;29717;47.028;15.470;2023-07-31T14:25:22;1.98;;;1.88;;
44048;SDS011;29717;47.028;15.470;2023-07-31T14:27:49;6.50;;;1.83;;
44048;SDS011;29717;47.028;15.470;2023-07-31T14:30:16;3.38;;;1.83;;
44048;SDS011;29717;47.028;15.470;2023-07-31T14:32:43;2.38;;;1.92;;
44048;SDS011;29717;47.028;15.470;2023-07-31T14:35:10;2.00;;;1.80;;
44048;SDS011;29717;47.028;15.470;2023-07-31T14:37:38;2.20;;;2.00;;